Time;durP1;ratioP1;P1;durP2;ratioP2;P2;SDS_P1;SDS_P2;PMS_P1;PMS_P2;Temp;Humidity;BMP_temperature;BMP_pressure;BME280_temperature;BME280_humidity;BME280_pressure;Samples;Min_cycle;Max_cycle;Signal;HPM_P1;HPM_P2
2022/12/01 00:01:04;;;;;;;;;60.25;49.25;;;;;6.68;81.67;101619.16;5055353;28;45358;-69
2022/12/01 00:03:30;;;;;;;;;57.75;46.25;;;;;6.65;81.51;101620.03;5066391;28;45269;-67
2022/12/01 00:06:02;;;;;;;;;56.25;46.25;;;;;6.63;80.83;101616.56;5067770;28;45516;-70
2022/12/01 00:08:28;;;;;;;;;59.00;49.00;;;;;6.60;81.80;101611.34;5060628;28;45352;-68
2022/12/01 00:10:53;;;;;;;;;56.25;45.75;;;;;6.65;82.08;101613.97;5060549;28;45503;-65
2022/12/01 00:13:19;;;;;;;;;55.25;45.50;;;;;6.62;81.22;101603.53;5066006;27;45276;-70
2022/12/01 00:15:44;;;;;;;;;57.25;46.75;;;;;6.64;80.90;101612.22;5058083;28;45331;-66
2022/12/01 00:18:09;;;;;;;;;57.00;46.25;;;;;6.61;82.45;101602.63;5055766;28;45307;-69
2022/12/01 00:20:35;;;;;;;;;51.75;43.00;;;;;6.60;81.62;101607.91;5069295;28;45324;-70
2022/12/01 00:23:01;;;;;;;;;54.25;44.25;;;;;6.57;81.29;101593.97;5060527;28;45698;-68
2022/12/01 00:25:27;;;;;;;;;57.25;45.00;;;;;6.63;81.26;101606.13;5090696;27;45616;-68
2022/12/01 00:27:53;;;;;;;;;56.00;45.50;;;;;6.62;81.44;101609.59;5075150;27;45505;-66
2022/12/01 00:30:20;;;;;;;;;50.00;40.50;;;;;6.58;81.31;101611.38;5071144;27;45551;-69
2022/12/01 00:32:46;;;;;;;;;55.75;46.50;;;;;6.60;80.77;101607.91;5073105;27;45556;-65
2022/12/01 00:35:13;;;;;;;;;50.75;42.25;;;;;6.40;81.37;101588.00;5070505;27;45449;-70
2022/12/01 00:37:38;;;;;;;;;55.50;46.25;;;;;6.49;80.31;101611.44;5094045;27;45534;-68
2022/12/01 00:40:05;;;;;;;;;57.75;48.00;;;;;6.49;80.83;101613.19;5096284;27;45479;-64
2022/12/01 00:42:30;;;;;;;;;60.75;48.25;;;;;6.49;80.92;101615.81;5094777;27;46296;-72
2022/12/01 00:44:55;;;;;;;;;55.00;45.75;;;;;6.50;81.05;101612.31;5096030;27;45266;-66
2022/12/01 00:47:21;;;;;;;;;52.25;43.00;;;;;6.52;80.51;101611.44;5076074;27;45379;-67
2022/12/01 00:49:46;;;;;;;;;55.75;44.25;;;;;6.48;80.51;101609.72;5055467;28;45218;-67
2022/12/01 00:52:12;;;;;;;;;54.75;44.50;;;;;6.50;80.45;101617.53;5054752;28;46278;-70
2022/12/01 00:54:38;;;;;;;;;51.50;44.00;;;;;6.47;80.15;101602.75;5055031;28;45396;-64
2022/12/01 00:57:04;;;;;;;;;61.75;47.75;;;;;6.52;81.04;101611.44;5054477;28;45573;-68
2022/12/01 00:59:29;;;;;;;;;56.00;45.25;;;;;6.53;80.02;101607.94;5055047;28;45339;-70
2022/12/01 01:01:54;;;;;;;;;55.50;47.50;;;;;6.47;80.35;101607.97;5053921;28;45448;-69
2022/12/01 01:04:20;;;;;;;;;53.00;44.50;;;;;6.45;80.31;101611.47;5060233;28;45471;-71
2022/12/01 01:06:45;;;;;;;;;55.25;45.00;;;;;6.39;79.59;101608.03;5072755;28;45424;-71
2022/12/01 01:09:12;;;;;;;;;53.75;46.25;;;;;6.43;79.55;101612.34;5074857;27;45459;-69
2022/12/01 01:11:38;;;;;;;;;54.00;44.25;;;;;6.34;79.71;101604.56;5071876;27;46728;-70
2022/12/01 01:14:04;;;;;;;;;57.75;46.00;;;;;6.34;79.95;101609.78;5060926;27;46063;-66
2022/12/01 01:16:30;;;;;;;;;54.00;45.00;;;;;6.25;80.16;101605.47;5052679;28;45481;-67
2022/12/01 01:18:57;;;;;;;;;55.75;45.50;;;;;6.27;79.98;101610.72;5060822;28;45665;-68
2022/12/01 01:21:23;;;;;;;;;61.25;48.00;;;;;6.24;80.17;101608.09;5064632;28;46995;-70
2022/12/01 01:23:49;;;;;;;;;62.50;48.25;;;;;6.20;80.38;101622.06;5065613;27;45323;-70
2022/12/01 01:26:23;;;;;;;;;52.75;44.75;;;;;6.13;79.87;101611.66;5053204;28;45409;-68
2022/12/01 01:28:49;;;;;;;;;58.75;46.50;;;;;6.09;80.04;101603.81;5070429;28;45459;-69
2022/12/01 01:31:19;;;;;;;;;57.50;48.00;;;;;6.06;79.74;101609.06;5057098;27;46401;-69
2022/12/01 01:33:44;;;;;;;;;55.75;46.75;;;;;5.96;80.07;101616.91;5055121;28;45330;-68
2022/12/01 01:36:11;;;;;;;;;56.00;45.00;;;;;5.92;80.15;101611.72;5065870;27;45865;-64
2022/12/01 01:38:36;;;;;;;;;56.25;46.00;;;;;5.83;81.32;101612.63;5071949;28;45326;-65
2022/12/01 01:41:03;;;;;;;;;57.25;48.25;;;;;5.79;80.84;101622.19;5073339;27;45533;-68
2022/12/01 01:43:55;;;;;;;;;55.00;44.00;;;;;5.78;80.67;101619.59;5092844;27;45362;-68
2022/12/01 01:46:23;;;;;;;;;57.00;47.75;;;;;5.71;81.36;101623.94;5056815;28;45452;-68
2022/12/01 01:49:03;;;;;;;;;55.50;46.50;;;;;5.57;81.42;101610.97;5054082;28;45588;-66
2022/12/01 01:51:52;;;;;;;;;59.75;47.00;;;;;5.70;81.74;101635.28;5066901;28;45469;-66
2022/12/01 01:54:25;;;;;;;;;54.00;45.50;;;;;5.74;81.53;101642.22;5073381;27;45228;-69
2022/12/01 01:56:52;;;;;;;;;51.00;44.50;;;;;5.74;81.78;101633.53;5062239;28;45353;-65
2022/12/01 01:59:23;;;;;;;;;48.00;40.25;;;;;5.74;81.47;101638.75;5073248;27;45455;-65
2022/12/01 02:02:05;;;;;;;;;56.25;45.50;;;;;5.76;81.82;101626.56;5067771;28;45427;-65
2022/12/01 02:04:34;;;;;;;;;56.75;47.25;;;;;5.80;81.79;101630.91;5055013;28;45364;-68
2022/12/01 02:06:59;;;;;;;;;55.50;47.25;;;;;5.82;81.78;101627.41;5073344;27;45584;-70
2022/12/01 02:09:25;;;;;;;;;55.00;45.00;;;;;5.85;81.76;101619.59;5057375;27;45613;-66
2022/12/01 02:12:15;;;;;;;;;50.25;42.00;;;;;5.91;81.79;101620.44;5076012;27;47140;-65
2022/12/01 02:15:12;;;;;;;;;53.25;45.00;;;;;5.90;80.64;101608.25;5056761;28;45547;-68
2022/12/01 02:17:53;;;;;;;;;57.75;46.50;;;;;5.93;81.32;101603.88;5047667;27;45495;-70
2022/12/01 02:20:28;;;;;;;;;45.25;38.75;;;;;5.97;80.97;101613.44;5064649;28;45583;-68
2022/12/01 02:23:09;;;;;;;;;52.50;42.75;;;;;5.97;80.08;101604.75;5067486;27;48239;-66
2022/12/01 02:25:50;;;;;;;;;44.50;39.00;;;;;5.98;80.50;101606.47;5067951;28;45460;-69
2022/12/01 02:29:03;;;;;;;;;52.50;45.00;;;;;6.03;81.13;101607.34;5055749;27;45392;-69
2022/12/01 02:32:04;;;;;;;;;52.75;43.25;;;;;6.07;80.11;101603.84;5058612;28;45666;-68
2022/12/01 02:34:48;;;;;;;;;50.00;42.75;;;;;6.07;80.43;101606.47;5052847;28;47290;-67
2022/12/01 02:37:27;;;;;;;;;56.75;44.25;;;;;6.10;80.72;101613.41;5053904;28;45357;-67
2022/12/01 02:40:04;;;;;;;;;51.25;43.25;;;;;6.08;79.89;101610.81;5061375;28;45317;-70
2022/12/01 02:42:49;;;;;;;;;52.50;44.50;;;;;6.05;80.51;101604.72;5068583;27;45554;-69
2022/12/01 02:45:30;;;;;;;;;56.00;46.50;;;;;6.01;79.94;101605.59;5067631;28;46497;-69
2022/12/01 02:48:00;;;;;;;;;55.50;45.25;;;;;5.96;80.76;101603.84;5061416;28;45220;-67
2022/12/01 02:50:29;;;;;;;;;57.75;45.50;;;;;5.95;80.32;101603.88;5070377;28;45768;-68
2022/12/01 02:52:54;;;;;;;;;54.50;45.50;;;;;5.88;80.28;101602.16;5063071;28;45340;-70
2022/12/01 02:55:20;;;;;;;;;55.25;43.50;;;;;5.87;79.99;101614.34;5063865;28;45958;-67
2022/12/01 02:57:45;;;;;;;;;54.00;43.50;;;;;5.87;81.48;101609.13;5059450;27;45547;-70
2022/12/01 03:00:12;;;;;;;;;51.50;43.25;;;;;5.85;80.91;101614.34;5052948;27;45291;-67
2022/12/01 03:03:10;;;;;;;;;57.50;45.75;;;;;5.85;80.02;101609.13;5067150;28;45624;-67
2022/12/01 03:05:47;;;;;;;;;52.00;44.00;;;;;5.84;80.61;101609.13;5078673;27;47354;-65
2022/12/01 03:08:53;;;;;;;;;54.00;44.00;;;;;5.80;80.50;101602.19;5071486;27;45324;-68
2022/12/01 03:11:29;;;;;;;;;56.00;46.25;;;;;5.80;80.96;101604.78;5058676;28;45546;-67
2022/12/01 03:14:13;;;;;;;;;51.75;43.25;;;;;5.76;81.21;101603.91;5058709;28;45446;-69
2022/12/01 03:16:52;;;;;;;;;55.50;42.25;;;;;5.75;80.42;101604.78;5060395;28;45359;-69
2022/12/01 03:19:29;;;;;;;;;52.50;43.75;;;;;5.73;80.58;101598.72;5066005;27;45361;-71
2022/12/01 03:22:03;;;;;;;;;54.00;44.00;;;;;5.75;81.31;101590.88;5056930;28;45427;-69
2022/12/01 03:24:31;;;;;;;;;55.75;47.00;;;;;5.82;81.01;101605.66;5075072;28;45685;-69
2022/12/01 03:26:59;;;;;;;;;58.00;45.75;;;;;5.85;81.44;101601.31;5069542;28;45595;-67
2022/12/01 03:29:33;;;;;;;;;54.75;46.00;;;;;5.85;80.98;101595.19;5058609;27;46166;-70
2022/12/01 03:32:04;;;;;;;;;53.50;42.50;;;;;5.88;80.80;101595.19;5057508;28;45686;-66
2022/12/01 03:34:40;;;;;;;;;53.75;44.25;;;;;5.86;81.13;101596.94;5069713;27;45788;-67
2022/12/01 03:37:13;;;;;;;;;54.00;44.50;;;;;5.88;81.13;101599.56;5055362;28;45658;-69
2022/12/01 03:39:41;;;;;;;;;50.75;42.25;;;;;5.90;81.09;101603.88;5063986;28;45459;-64
2022/12/01 03:42:14;;;;;;;;;54.00;45.50;;;;;5.89;80.76;101596.06;5065766;27;45471;-65
2022/12/01 03:44:50;;;;;;;;;56.25;45.00;;;;;5.91;81.20;101600.41;5065749;27;45488;-64
2022/12/01 03:47:20;;;;;;;;;56.50;46.00;;;;;5.94;81.16;101610.81;5055641;27;47149;-65
2022/12/01 03:49:49;;;;;;;;;55.00;45.00;;;;;5.91;81.30;101603.00;5054794;28;45393;-70
2022/12/01 03:52:46;;;;;;;;;50.75;42.25;;;;;5.89;81.34;101602.16;5066334;28;45369;-68
2022/12/01 03:55:19;;;;;;;;;52.25;43.50;;;;;6.05;81.00;101608.22;5055585;28;45280;-70
2022/12/01 03:58:15;;;;;;;;;52.50;43.00;;;;;6.07;80.72;101606.47;5055827;28;46592;-71
2022/12/01 04:00:42;;;;;;;;;54.75;45.50;;;;;6.06;80.77;101607.34;5064594;28;45334;-67
2022/12/01 04:03:17;;;;;;;;;56.25;45.00;;;;;6.08;80.33;101599.47;5067900;28;45538;-71
2022/12/01 04:05:42;;;;;;;;;55.75;45.50;;;;;6.06;80.93;101598.63;5055480;28;45314;-69
2022/12/01 04:08:07;;;;;;;;;52.50;45.50;;;;;6.08;80.13;101596.88;5071121;27;45386;-69
2022/12/01 04:10:33;;;;;;;;;53.25;44.50;;;;;6.11;81.15;101602.06;5053566;28;45365;-69
2022/12/01 04:12:58;;;;;;;;;51.00;43.25;;;;;6.09;80.88;101594.25;5055721;28;45437;-68
2022/12/01 04:15:25;;;;;;;;;50.25;41.25;;;;;6.13;80.80;101593.38;5069636;28;45622;-68
2022/12/01 04:17:51;;;;;;;;;58.25;45.50;;;;;6.12;80.32;101590.75;5056205;27;46103;-67
2022/12/01 04:20:16;;;;;;;;;52.75;44.50;;;;;6.08;80.90;101586.41;5055724;28;45212;-65
2022/12/01 04:22:42;;;;;;;;;54.75;42.25;;;;;6.07;80.68;101595.13;5055240;28;45240;-64
2022/12/01 04:25:08;;;;;;;;;58.50;47.75;;;;;6.01;80.98;101595.16;5066986;28;45229;-67
2022/12/01 04:27:34;;;;;;;;;58.50;45.25;;;;;5.93;80.51;101588.19;5069807;27;45708;-67
2022/12/01 04:29:59;;;;;;;;;48.50;40.50;;;;;5.96;80.65;101596.00;5079691;27;45197;-64
2022/12/01 04:32:24;;;;;;;;;38.25;36.25;;;;;5.94;80.54;101587.31;5068868;28;45290;-65
2022/12/01 04:34:50;;;;;;;;;53.25;44.00;;;;;5.91;81.19;101599.53;5088965;27;45529;-65
2022/12/01 04:37:16;;;;;;;;;54.50;45.75;;;;;5.87;81.17;101592.59;5067582;27;48458;-65
2022/12/01 04:39:41;;;;;;;;;52.25;44.00;;;;;5.84;80.90;101604.78;5061345;28;45307;-67
2022/12/01 04:42:07;;;;;;;;;48.25;39.25;;;;;5.80;81.04;101597.81;5061263;27;45380;-66
2022/12/01 04:44:33;;;;;;;;;52.75;43.25;;;;;5.76;81.09;101590.00;5070229;28;45384;-69
2022/12/01 04:46:58;;;;;;;;;51.25;40.75;;;;;5.73;80.98;101593.50;5057575;28;46079;-70
2022/12/01 04:49:24;;;;;;;;;59.50;48.00;;;;;5.76;80.40;101601.31;5066491;27;45373;-71
2022/12/01 04:51:49;;;;;;;;;55.50;46.50;;;;;5.73;80.92;101596.09;5054761;28;45412;-68
2022/12/01 04:54:16;;;;;;;;;52.75;45.25;;;;;5.68;81.34;101598.75;5058988;28;45457;-68
2022/12/01 04:56:41;;;;;;;;;59.00;47.25;;;;;5.71;81.22;101597.84;5086836;27;47164;-68
2022/12/01 04:59:07;;;;;;;;;47.75;39.75;;;;;5.72;81.22;101603.94;5071704;27;45703;-69
2022/12/01 05:01:32;;;;;;;;;50.00;43.00;;;;;5.72;81.30;101610.03;5068800;27;45275;-66
2022/12/01 05:03:58;;;;;;;;;49.75;42.50;;;;;5.70;81.15;101604.81;5054926;28;45195;-70
2022/12/01 05:06:25;;;;;;;;;47.00;40.00;;;;;5.76;81.12;101611.75;5054718;28;45996;-68
2022/12/01 05:08:54;;;;;;;;;48.50;41.00;;;;;5.79;80.93;101600.44;5054675;28;45347;-69
2022/12/01 05:11:20;;;;;;;;;53.00;42.75;;;;;5.84;80.97;101599.56;5071426;28;45354;-68
2022/12/01 05:13:47;;;;;;;;;55.50;44.75;;;;;5.88;80.44;101610.00;5062120;28;45230;-65
2022/12/01 05:16:34;;;;;;;;;56.25;45.75;;;;;5.91;80.20;101603.00;5062186;27;45704;-69
2022/12/01 05:21:47;;;;;;;;;59.25;44.75;;;;;5.90;80.67;101609.09;5065263;28;45354;-69
2022/12/01 05:24:14;;;;;;;;;52.25;44.00;;;;;5.90;80.12;101603.88;5069988;28;45463;-66
2022/12/01 05:26:40;;;;;;;;;52.25;43.00;;;;;5.90;80.29;101608.25;5074130;28;46241;-68
2022/12/01 05:29:07;;;;;;;;;54.75;45.50;;;;;5.84;79.54;101596.06;5073023;27;45347;-69
2022/12/01 05:31:33;;;;;;;;;50.50;43.00;;;;;5.90;80.73;101600.41;5062819;27;45529;-63
2022/12/01 05:33:59;;;;;;;;;50.75;44.00;;;;;5.89;80.49;101596.91;5057700;28;45520;-67
2022/12/01 05:36:24;;;;;;;;;51.75;43.75;;;;;5.93;79.99;101603.88;5053549;28;46174;-66
2022/12/01 05:38:49;;;;;;;;;52.75;44.00;;;;;5.92;79.65;101596.91;5053464;28;45521;-67
2022/12/01 05:41:15;;;;;;;;;51.50;43.50;;;;;5.96;79.51;101605.63;5061350;27;45454;-69
2022/12/01 05:43:41;;;;;;;;;52.00;40.25;;;;;5.92;79.31;101599.50;5053092;28;45350;-68
2022/12/01 05:46:06;;;;;;;;;55.50;46.50;;;;;5.94;78.78;101607.38;5066183;28;45484;-68
2022/12/01 05:48:31;;;;;;;;;54.75;44.25;;;;;5.95;78.35;101614.31;5055639;28;45408;-69
2022/12/01 05:50:57;;;;;;;;;51.50;43.00;;;;;5.96;78.61;101616.06;5068953;27;45355;-69
2022/12/01 05:53:22;;;;;;;;;56.00;43.50;;;;;5.96;78.42;101618.66;5072864;28;45522;-69
2022/12/01 05:55:52;;;;;;;;;52.50;44.00;;;;;5.98;78.93;101622.16;5054554;27;46583;-70
2022/12/01 05:58:18;;;;;;;;;54.50;46.50;;;;;5.98;79.00;101611.69;5053497;28;45263;-70
2022/12/01 06:00:43;;;;;;;;;49.25;41.50;;;;;5.96;78.76;101610.84;5067859;28;45408;-70
2022/12/01 06:03:08;;;;;;;;;43.00;37.75;;;;;5.99;78.22;101614.28;5060630;27;45283;-65
2022/12/01 06:05:34;;;;;;;;;47.75;40.75;;;;;6.01;78.05;101614.31;5053260;28;45372;-69
2022/12/01 06:07:59;;;;;;;;;49.50;41.75;;;;;5.99;77.86;101619.50;5053402;28;45529;-65
2022/12/01 06:10:24;;;;;;;;;51.00;44.00;;;;;5.95;78.05;101612.56;5067547;28;45948;-68
2022/12/01 06:12:50;;;;;;;;;43.50;39.25;;;;;5.95;78.27;101607.34;5060372;27;45471;-65
2022/12/01 06:15:15;;;;;;;;;54.75;44.00;;;;;5.97;78.90;101609.97;5073200;27;47969;-67
2022/12/01 06:17:41;;;;;;;;;45.25;39.00;;;;;5.96;78.16;101616.91;5059333;27;45334;-67
2022/12/01 06:20:08;;;;;;;;;50.00;41.75;;;;;5.98;77.58;101616.91;5063025;27;45434;-70
2022/12/01 06:22:33;;;;;;;;;52.50;44.75;;;;;5.92;77.36;101617.81;5067688;28;45599;-69
2022/12/01 06:24:58;;;;;;;;;52.00;44.25;;;;;5.93;77.67;101614.31;5071800;27;46433;-67
2022/12/01 06:27:24;;;;;;;;;53.00;45.25;;;;;5.89;78.39;101612.59;5073032;27;51996;-67
2022/12/01 06:29:49;;;;;;;;;50.75;42.25;;;;;5.87;78.80;101608.25;5078261;27;45260;-69
2022/12/01 06:32:15;;;;;;;;;51.25;43.75;;;;;5.92;78.67;101606.50;5082002;27;45438;-65
2022/12/01 06:34:42;;;;;;;;;54.75;44.75;;;;;5.84;78.42;101603.91;5056063;28;45436;-69
2022/12/01 06:37:08;;;;;;;;;48.00;39.75;;;;;5.86;77.93;101607.38;5060141;27;45559;-65
2022/12/01 06:39:33;;;;;;;;;50.75;42.25;;;;;5.87;77.70;101611.72;5072720;27;45406;-64
2022/12/01 06:41:58;;;;;;;;;46.00;40.00;;;;;5.86;77.42;101623.03;5056533;27;45672;-67
2022/12/01 06:44:24;;;;;;;;;49.75;40.75;;;;;5.85;78.01;101613.47;5067575;27;45812;-69
2022/12/01 06:46:52;;;;;;;;;53.75;43.25;;;;;5.82;77.58;101616.94;5053719;28;45281;-68
2022/12/01 06:49:19;;;;;;;;;53.75;42.25;;;;;5.75;77.48;101609.16;5056981;28;45452;-68
2022/12/01 06:51:45;;;;;;;;;47.25;40.75;;;;;5.77;77.40;101616.09;5077185;27;45490;-68
2022/12/01 06:54:11;;;;;;;;;54.75;45.50;;;;;5.75;77.51;101615.25;5074586;28;45229;-69
2022/12/01 06:56:36;;;;;;;;;51.75;43.75;;;;;5.75;77.35;101623.06;5056687;28;45241;-67
2022/12/01 06:59:02;;;;;;;;;42.50;38.25;;;;;5.74;77.48;101625.69;5069927;28;45882;-69
2022/12/01 07:01:27;;;;;;;;;52.50;44.00;;;;;5.67;77.77;101636.16;5076132;28;45445;-66
2022/12/01 07:03:53;;;;;;;;;46.75;40.50;;;;;5.70;77.58;101637.88;5073019;28;50788;-68
2022/12/01 07:06:19;;;;;;;;;53.25;42.25;;;;;5.64;78.36;101638.78;5059924;28;45486;-71
2022/12/01 07:08:44;;;;;;;;;47.25;38.00;;;;;5.64;77.43;101636.19;5073914;27;45877;-69
2022/12/01 07:11:12;;;;;;;;;49.75;42.00;;;;;5.66;78.23;101639.66;5064544;28;45490;-69
2022/12/01 07:13:38;;;;;;;;;53.75;44.25;;;;;5.68;77.75;101645.72;5065586;27;45940;-70
2022/12/01 07:16:05;;;;;;;;;56.00;46.00;;;;;5.68;78.35;101643.13;5070597;28;45421;-69
2022/12/01 07:18:32;;;;;;;;;55.75;46.25;;;;;5.68;78.25;101656.19;5070088;27;45264;-69
2022/12/01 07:21:02;;;;;;;;;53.50;45.00;;;;;5.72;78.41;101650.94;5056278;28;45383;-65
2022/12/01 07:23:28;;;;;;;;;52.25;43.00;;;;;5.73;77.96;101657.91;5055960;28;46339;-67
2022/12/01 07:26:09;;;;;;;;;43.00;37.75;;;;;5.69;78.31;101646.59;5064068;28;45394;-69
2022/12/01 07:28:34;;;;;;;;;51.75;42.25;;;;;5.72;78.24;101654.41;5089368;27;45289;-69
2022/12/01 07:31:04;;;;;;;;;53.50;44.00;;;;;5.70;77.90;101654.44;5068718;28;45701;-72
2022/12/01 07:33:30;;;;;;;;;47.00;40.25;;;;;5.73;78.01;101657.91;5068027;28;45558;-72
2022/12/01 07:35:56;;;;;;;;;39.25;36.25;;;;;5.73;77.31;101655.28;5055187;28;45274;-74
2022/12/01 07:38:21;;;;;;;;;36.00;33.25;;;;;5.74;78.11;101668.31;5063668;28;45226;-72
2022/12/01 07:40:46;;;;;;;;;52.75;43.25;;;;;5.67;77.67;101659.66;5108544;27;45492;-71
2022/12/01 07:43:12;;;;;;;;;46.00;40.75;;;;;5.69;78.22;101665.75;5057534;27;45888;-69
2022/12/01 07:45:37;;;;;;;;;44.25;39.25;;;;;5.66;78.12;101665.75;5055418;28;45665;-72
2022/12/01 07:48:02;;;;;;;;;51.25;44.00;;;;;5.66;77.52;101681.41;5056573;28;45312;-77
2022/12/01 07:50:28;;;;;;;;;45.75;40.75;;;;;5.64;78.26;101684.88;5056516;28;45327;-73
2022/12/01 07:52:53;;;;;;;;;48.25;42.00;;;;;5.67;78.09;101687.50;5056477;28;45348;-72
2022/12/01 07:55:18;;;;;;;;;52.00;44.50;;;;;5.62;78.30;101686.63;5055425;28;45366;-69
2022/12/01 07:57:44;;;;;;;;;49.50;43.00;;;;;5.65;78.26;101692.72;5055613;28;45307;-75
2022/12/01 08:00:10;;;;;;;;;52.00;45.00;;;;;5.66;77.79;101693.59;5062226;28;45340;-72
2022/12/01 08:02:35;;;;;;;;;43.75;39.50;;;;;5.68;78.21;101702.28;5073320;28;46260;-75
2022/12/01 08:05:01;;;;;;;;;53.00;43.00;;;;;5.72;78.26;101705.78;5075184;27;45411;-75
2022/12/01 08:07:26;;;;;;;;;53.50;44.00;;;;;5.72;78.51;101708.38;5074143;27;45477;-72
2022/12/01 08:09:51;;;;;;;;;55.00;45.25;;;;;5.67;78.21;101691.00;5076088;27;45624;-76
2022/12/01 08:12:17;;;;;;;;;52.00;43.50;;;;;5.78;78.76;101708.38;5074929;27;46603;-78
2022/12/01 08:14:42;;;;;;;;;50.50;43.50;;;;;5.79;77.81;101707.50;5074527;28;55118;-75
2022/12/01 08:17:07;;;;;;;;;50.25;42.25;;;;;5.80;78.34;101706.63;5066290;27;46088;-74
2022/12/01 08:19:33;;;;;;;;;44.75;37.25;;;;;5.80;77.67;101715.31;5067300;27;45494;-65
2022/12/01 08:21:58;;;;;;;;;45.25;39.25;;;;;5.77;77.69;101712.69;5055456;28;46585;-73
2022/12/01 08:24:24;;;;;;;;;47.25;40.25;;;;;5.78;77.99;101718.81;5088232;27;45600;-72
2022/12/01 08:26:49;;;;;;;;;50.50;42.00;;;;;5.76;77.48;101723.16;5056282;28;45361;-71
2022/12/01 08:29:15;;;;;;;;;48.75;39.50;;;;;5.74;77.85;101723.16;5080809;27;45530;-73
2022/12/01 08:31:40;;;;;;;;;47.75;41.00;;;;;5.70;78.33;101710.97;5076656;27;45505;-66
2022/12/01 08:34:06;;;;;;;;;50.00;40.00;;;;;5.76;77.85;101720.56;5080827;28;45326;-66
2022/12/01 08:36:32;;;;;;;;;55.50;45.00;;;;;5.82;77.90;101720.53;5077431;27;45505;-69
2022/12/01 08:38:58;;;;;;;;;75.25;60.00;;;;;5.83;78.20;101723.16;5056580;28;45402;-74
2022/12/01 08:41:23;;;;;;;;;42.25;38.50;;;;;5.87;78.21;101724.00;5066421;28;45460;-73
2022/12/01 08:43:49;;;;;;;;;42.75;38.00;;;;;5.89;77.54;101726.63;5106442;27;45520;-71
2022/12/01 08:46:14;;;;;;;;;46.75;39.25;;;;;5.87;77.61;101716.19;5073543;28;45417;-73
2022/12/01 08:48:40;;;;;;;;;45.00;39.25;;;;;5.92;77.83;101711.81;5075756;27;45599;-73
2022/12/01 08:51:12;;;;;;;;;43.50;36.75;;;;;5.96;77.63;101715.31;5074740;27;46319;-69
2022/12/01 08:53:42;;;;;;;;;44.25;39.25;;;;;5.99;77.11;101728.34;5075030;27;45490;-75
2022/12/01 08:56:13;;;;;;;;;46.25;40.00;;;;;6.02;77.51;101724.88;5073674;28;45302;-75
2022/12/01 08:58:38;;;;;;;;;38.00;34.25;;;;;6.01;76.91;101724.03;5076030;27;45576;-78
2022/12/01 09:01:06;;;;;;;;;44.00;38.25;;;;;5.99;76.98;101729.22;5076806;27;46129;-75
2022/12/01 09:03:33;;;;;;;;;39.25;36.50;;;;;6.00;77.45;101727.47;5076086;27;45333;-74
2022/12/01 09:06:06;;;;;;;;;40.75;35.00;;;;;5.98;77.34;101732.69;5075739;28;45417;-76
2022/12/01 09:08:32;;;;;;;;;43.25;36.75;;;;;5.98;77.81;101737.91;5073208;28;45536;-74
2022/12/01 09:10:59;;;;;;;;;44.00;36.50;;;;;6.03;77.30;101726.63;5075010;27;45352;-75
2022/12/01 09:13:26;;;;;;;;;42.25;36.50;;;;;6.06;77.08;101722.28;5075026;27;45272;-75
2022/12/01 09:16:00;;;;;;;;;47.00;40.00;;;;;6.12;77.03;101724.88;5074947;27;45280;-69
2022/12/01 09:18:26;;;;;;;;;44.25;38.00;;;;;6.21;77.13;101728.31;5075164;27;45414;-75
2022/12/01 09:20:53;;;;;;;;;45.00;39.50;;;;;6.24;77.54;101728.31;5075000;28;46662;-71
2022/12/01 09:23:18;;;;;;;;;41.75;37.25;;;;;6.21;76.84;101729.16;5075031;27;45222;-70
2022/12/01 09:25:44;;;;;;;;;40.25;36.00;;;;;6.20;77.13;101722.22;5075147;27;45327;-74
2022/12/01 09:28:09;;;;;;;;;42.00;37.50;;;;;6.25;77.21;101733.50;5075055;27;45354;-70
2022/12/01 09:30:35;;;;;;;;;35.25;31.00;;;;;6.19;77.17;101722.22;5074944;27;46470;-71
2022/12/01 09:33:00;;;;;;;;;49.75;42.25;;;;;6.21;77.03;101717.88;5075069;27;45384;-72
2022/12/01 09:35:26;;;;;;;;;39.25;36.00;;;;;6.26;76.67;101732.63;5075017;27;45539;-71
2022/12/01 09:37:51;;;;;;;;;36.75;35.25;;;;;6.26;76.55;101723.94;5075185;27;45344;-72
2022/12/01 09:40:17;;;;;;;;;42.50;37.50;;;;;6.35;75.74;101729.13;5074608;27;46460;-69
2022/12/01 09:42:46;;;;;;;;;43.75;38.00;;;;;6.41;76.22;101736.09;5074990;27;45374;-71
2022/12/01 09:45:25;;;;;;;;;40.75;35.25;;;;;6.42;76.11;101733.44;5074719;27;45375;-72
2022/12/01 09:47:54;;;;;;;;;41.75;36.50;;;;;6.41;76.36;101736.94;5074827;28;45291;-70
2022/12/01 09:50:24;;;;;;;;;43.75;36.50;;;;;6.40;76.22;101731.75;5074840;27;46026;-67
2022/12/01 09:52:56;;;;;;;;;47.00;39.75;;;;;6.44;75.66;101728.22;5074375;27;45472;-69
2022/12/01 09:55:24;;;;;;;;;44.50;37.00;;;;;6.50;75.33;101725.59;5074465;27;45273;-75
2022/12/01 09:57:53;;;;;;;;;38.25;35.00;;;;;6.51;74.98;101729.06;5074982;27;45263;-71
2022/12/01 10:00:23;;;;;;;;;38.50;36.00;;;;;6.55;75.60;101729.06;5074366;27;45552;-67
2022/12/01 10:03:00;;;;;;;;;31.25;31.25;;;;;6.55;75.03;101739.50;5089924;27;45304;-71
2022/12/01 10:05:37;;;;;;;;;18.00;14.75;;;;;6.53;74.78;101730.81;5090098;27;45301;-74
2022/12/01 10:08:06;;;;;;;;;44.00;37.50;;;;;6.55;74.92;101729.06;5073379;28;45494;-73
2022/12/01 10:10:54;;;;;;;;;43.00;38.25;;;;;6.61;75.31;101722.91;5074768;27;46589;-66
2022/12/01 10:13:25;;;;;;;;;47.75;39.50;;;;;6.65;75.64;101714.16;5076996;27;45332;-69
2022/12/01 10:15:54;;;;;;;;;34.75;33.00;;;;;6.70;74.02;101717.63;5082702;27;45249;-72
2022/12/01 10:18:57;;;;;;;;;29.75;28.00;;;;;6.72;75.10;101712.41;5085484;27;45494;-73
2022/12/01 10:21:50;;;;;;;;;39.00;36.00;;;;;6.81;74.92;101722.81;4998346;28;46905;-71
2022/12/01 10:24:46;;;;;;;;;38.75;35.00;;;;;6.89;73.89;101719.28;5072110;28;45252;-74
2022/12/01 10:27:30;;;;;;;;;48.00;41.00;;;;;6.92;73.46;101716.63;5081154;28;45395;-72
2022/12/01 10:30:11;;;;;;;;;64.00;54.50;;;;;6.94;73.39;101714.88;5081382;28;45250;-74
2022/12/01 10:32:55;;;;;;;;;37.75;34.75;;;;;6.95;73.51;101717.50;5081707;28;46305;-69
2022/12/01 10:35:23;;;;;;;;;36.50;34.50;;;;;6.91;73.62;101701.81;5080777;27;45429;-70
2022/12/01 10:37:55;;;;;;;;;43.25;36.75;;;;;6.97;72.90;101714.84;5079662;28;45452;-69
2022/12/01 10:40:21;;;;;;;;;44.25;36.50;;;;;6.98;73.89;101712.25;5080650;27;45381;-69
2022/12/01 10:42:48;;;;;;;;;36.25;33.50;;;;;7.04;73.83;101708.69;5080578;27;46661;-70
2022/12/01 10:45:21;;;;;;;;;27.25;27.25;;;;;7.06;72.76;101711.31;5078871;27;45455;-73
2022/12/01 10:48:08;;;;;;;;;38.00;35.25;;;;;7.09;72.62;101706.06;5079530;28;45335;-75
2022/12/01 10:50:34;;;;;;;;;35.25;32.25;;;;;7.05;73.23;101702.59;5080811;27;45326;-76
2022/12/01 10:53:00;;;;;;;;;35.25;33.75;;;;;6.99;73.31;101692.16;5079134;28;45836;-74
2022/12/01 10:55:30;;;;;;;;;35.50;32.75;;;;;6.98;72.46;101695.66;5080598;27;45277;-76
2022/12/01 10:57:58;;;;;;;;;35.25;32.00;;;;;7.01;72.81;101693.03;5080818;27;45552;-77
2022/12/01 11:00:33;;;;;;;;;40.25;35.75;;;;;6.91;73.28;101679.16;5080987;27;45397;-70
2022/12/01 11:02:59;;;;;;;;;29.75;29.75;;;;;6.93;73.38;101681.75;5080250;28;45503;-70
2022/12/01 11:05:27;;;;;;;;;40.25;34.75;;;;;6.97;73.11;101686.06;5080314;27;45424;-69
2022/12/01 11:07:53;;;;;;;;;40.25;35.25;;;;;7.01;73.54;101685.16;5079050;28;45285;-73
2022/12/01 11:10:26;;;;;;;;;36.50;33.75;;;;;7.01;73.12;101682.56;5080461;27;45469;-73
2022/12/01 11:12:58;;;;;;;;;41.75;38.50;;;;;7.00;73.20;101680.81;5080263;27;45403;-69
2022/12/01 11:15:27;;;;;;;;;55.25;45.00;;;;;7.02;73.12;101679.06;5113510;27;45475;-67
2022/12/01 11:18:04;;;;;;;;;43.00;38.75;;;;;7.05;73.48;101676.41;5081099;27;45227;-63
2022/12/01 11:20:38;;;;;;;;;31.75;31.50;;;;;7.02;72.58;101676.44;5081145;27;45536;-65
2022/12/01 11:23:25;;;;;;;;;29.75;28.75;;;;;7.05;72.92;101679.03;5080908;27;46392;-66
2022/12/01 11:26:05;;;;;;;;;38.75;35.25;;;;;7.00;73.00;101681.72;5096202;27;46029;-63
2022/12/01 11:28:33;;;;;;;;;44.25;35.00;;;;;7.00;72.26;101678.22;5096705;27;45255;-70
2022/12/01 11:31:06;;;;;;;;;44.00;38.00;;;;;6.95;72.53;101680.88;5080123;27;45445;-70